createdAt,value
2023-04-27T00:02:06.732Z,5.47
2023-04-27T00:04:38.258Z,4.20
2023-04-27T00:07:09.841Z,8.40
2023-04-27T00:09:41.153Z,4.97
2023-04-27T00:12:12.438Z,6.67
2023-04-27T00:14:44.844Z,9.10
2023-04-27T00:17:16.294Z,5.27
2023-04-27T00:19:48.429Z,5.50
2023-04-27T00:22:19.788Z,6.70
2023-04-27T00:24:51.056Z,6.10
2023-04-27T00:27:22.352Z,6.07
2023-04-27T00:29:53.631Z,6.67
2023-04-27T00:32:25.153Z,12.10
2023-04-27T00:34:56.425Z,5.90
2023-04-27T00:37:27.715Z,7.33
2023-04-27T00:39:58.984Z,5.73
2023-04-27T00:42:30.441Z,8.87
2023-04-27T00:45:01.945Z,5.20
2023-04-27T00:47:33.380Z,11.17
2023-04-27T00:50:08.452Z,6.60
2023-04-27T00:52:39.878Z,6.47
2023-04-27T00:55:11.679Z,7.07
2023-04-27T00:57:42.955Z,5.23
2023-04-27T01:00:14.481Z,7.17
2023-04-27T01:02:46.187Z,5.00
2023-04-27T01:05:18.050Z,4.30
2023-04-27T01:23:17.451Z,6.23
2023-04-27T01:25:49.053Z,5.73
2023-04-27T01:28:20.348Z,9.37
2023-04-27T01:30:51.828Z,5.87
2023-04-27T01:33:23.178Z,5.13
2023-04-27T01:35:55.029Z,7.20
2023-04-27T01:38:26.421Z,8.23
2023-04-27T01:41:01.894Z,6.53
2023-04-27T01:43:33.245Z,4.25
2023-04-27T01:46:11.569Z,7.40
2023-04-27T01:48:43.237Z,7.20
2023-04-27T01:51:15.086Z,9.90
2023-04-27T01:53:46.391Z,8.30
2023-04-27T01:56:17.659Z,7.67
2023-04-27T01:58:48.930Z,7.53
2023-04-27T02:01:20.804Z,9.70
2023-04-27T02:03:52.227Z,7.10
2023-04-27T02:06:23.662Z,7.20
2023-04-27T02:08:54.919Z,6.00
2023-04-27T02:11:27.524Z,5.83
2023-04-27T02:13:58.906Z,5.80
2023-04-27T02:16:30.632Z,8.67
2023-04-27T02:19:03.001Z,6.43
2023-04-27T02:21:34.327Z,7.93
2023-04-27T02:24:05.956Z,5.83
2023-04-27T02:26:37.247Z,7.33
2023-04-27T02:29:08.555Z,6.40
2023-04-27T02:31:40.794Z,9.30
2023-04-27T02:34:12.272Z,6.90
2023-04-27T02:36:43.526Z,5.83
2023-04-27T02:39:15.053Z,4.40
2023-04-27T02:41:46.644Z,10.27
2023-04-27T02:44:17.928Z,5.47
2023-04-27T02:46:50.626Z,10.50
2023-04-27T02:49:21.996Z,5.17
2023-04-27T02:51:53.263Z,5.97
2023-04-27T02:54:25.363Z,7.07
2023-04-27T02:56:56.647Z,6.90
2023-04-27T02:59:27.948Z,8.33
2023-04-27T03:01:59.332Z,6.60
2023-04-27T03:04:30.603Z,6.97
2023-04-27T03:07:03.487Z,6.80
2023-04-27T03:09:34.780Z,5.97
2023-04-27T03:12:06.161Z,10.13
2023-04-27T03:14:37.539Z,5.20
2023-04-27T03:17:08.847Z,6.33
2023-04-27T03:19:40.215Z,7.30
2023-04-27T03:22:11.498Z,7.97
2023-04-27T03:24:43.035Z,7.27
2023-04-27T03:27:14.372Z,7.07
2023-04-27T03:29:46.191Z,7.50
2023-04-27T03:32:17.454Z,8.60
2023-04-27T03:34:48.828Z,5.43
2023-04-27T03:37:20.114Z,6.33
2023-04-27T03:39:52.724Z,12.30
2023-04-27T03:42:24.084Z,5.03
2023-04-27T03:44:55.409Z,6.73
2023-04-27T03:47:26.707Z,5.27
2023-04-27T03:49:58.492Z,9.50
2023-04-27T03:52:29.815Z,8.17
2023-04-27T03:55:01.063Z,5.83
2023-04-27T03:57:32.334Z,6.27
2023-04-27T04:00:07.739Z,6.93
2023-04-27T04:02:39.345Z,6.32
2023-04-27T04:05:12.079Z,7.63
2023-04-27T04:07:43.739Z,6.90
2023-04-27T04:10:15.187Z,6.17
2023-04-27T04:12:46.512Z,11.83
2023-04-27T04:15:18.729Z,6.23
2023-04-27T04:17:50.109Z,11.03
2023-04-27T04:20:22.260Z,9.27
2023-04-27T04:22:53.516Z,7.20
2023-04-27T04:25:26.114Z,3.20
2023-04-27T04:27:57.950Z,7.57
2023-04-27T04:30:29.346Z,6.97
2023-04-27T04:33:00.642Z,10.47
2023-04-27T04:35:33.028Z,11.70
2023-04-27T04:38:04.386Z,7.27
2023-04-27T04:40:36.118Z,6.10
2023-04-27T04:43:07.656Z,7.03
2023-04-27T04:45:38.968Z,7.07
2023-04-27T04:48:10.321Z,6.97
2023-04-27T04:50:42.088Z,6.57
2023-04-27T04:53:13.410Z,7.80
2023-04-27T04:55:44.684Z,6.47
2023-04-27T04:58:16.164Z,7.37
2023-04-27T05:00:47.403Z,8.80
2023-04-27T05:03:18.845Z,7.03
2023-04-27T05:05:50.316Z,7.87
2023-04-27T05:08:21.586Z,6.90
2023-04-27T05:10:53.755Z,8.43
2023-04-27T05:13:25.033Z,7.47
2023-04-27T05:15:56.480Z,6.60
2023-04-27T05:18:27.828Z,7.60
2023-04-27T05:20:59.114Z,7.53
2023-04-27T05:23:30.546Z,9.83
2023-04-27T05:26:01.866Z,7.30
2023-04-27T05:28:33.268Z,8.13
2023-04-27T05:31:04.545Z,7.57
2023-04-27T05:33:35.955Z,6.97
2023-04-27T05:36:07.490Z,7.43
2023-04-27T05:38:40.318Z,8.97
2023-04-27T05:41:11.823Z,7.53
2023-04-27T05:43:43.097Z,8.43
2023-04-27T05:46:15.197Z,11.67
2023-04-27T05:48:46.586Z,10.60
2023-04-27T05:51:17.850Z,7.13
2023-04-27T05:53:49.294Z,11.10
2023-04-27T05:56:21.301Z,13.00
2023-04-27T05:58:52.929Z,7.47
2023-04-27T06:01:24.210Z,7.63
2023-04-27T06:03:55.961Z,7.70
2023-04-27T06:06:28.246Z,10.33
2023-04-27T06:08:59.785Z,7.40
2023-04-27T06:11:31.040Z,7.67
2023-04-27T06:14:02.319Z,6.80
2023-04-27T06:16:33.655Z,6.13
2023-04-27T06:19:05.003Z,4.97
2023-04-27T06:21:36.330Z,6.77
2023-04-27T06:24:07.676Z,6.93
2023-04-27T06:26:38.998Z,9.73
2023-04-27T06:29:10.335Z,6.03
2023-04-27T06:31:41.664Z,4.73
2023-04-27T06:34:13.016Z,7.10
2023-04-27T06:36:44.301Z,4.63
2023-04-27T06:39:15.974Z,6.87
2023-04-27T06:41:47.490Z,6.93
2023-04-27T06:44:19.005Z,5.57
2023-04-27T06:46:51.113Z,6.33
2023-04-27T06:49:22.390Z,8.33
2023-04-27T06:51:53.654Z,6.00
2023-04-27T06:54:24.926Z,6.70
2023-04-27T06:56:56.479Z,5.30
2023-04-27T06:59:27.883Z,5.03
2023-04-27T07:01:59.249Z,5.60
2023-04-27T07:04:30.729Z,4.37
2023-04-27T07:07:02.028Z,6.17
2023-04-27T07:09:33.557Z,7.23
2023-04-27T07:12:05.156Z,6.30
2023-04-27T07:14:36.434Z,7.13
2023-04-27T07:17:07.921Z,3.73
2023-04-27T07:19:39.210Z,3.40
2023-04-27T07:22:10.547Z,6.73
2023-04-27T07:24:41.853Z,8.43
2023-04-27T07:27:14.942Z,5.77
2023-04-27T07:29:46.251Z,4.40
2023-04-27T07:32:17.979Z,7.97
2023-04-27T07:34:54.185Z,4.83
2023-04-27T07:37:26.628Z,6.40
2023-04-27T07:39:59.808Z,3.27
2023-04-27T07:42:31.165Z,5.40
2023-04-27T07:45:02.431Z,5.57
2023-04-27T07:47:34.063Z,7.03
2023-04-27T07:50:08.746Z,4.27
2023-04-27T07:52:40.226Z,2.93
2023-04-27T07:55:11.694Z,4.80
2023-04-27T07:57:42.977Z,4.83
2023-04-27T08:00:14.457Z,4.57
2023-04-27T08:02:45.976Z,4.53
2023-04-27T08:05:18.187Z,4.77
2023-04-27T08:07:50.204Z,3.80
2023-04-27T08:10:22.111Z,4.50
2023-04-27T08:12:53.462Z,3.27
2023-04-27T08:15:24.782Z,2.63
2023-04-27T08:17:56.213Z,3.50
2023-04-27T08:20:27.571Z,3.77
2023-04-27T08:22:58.926Z,3.30
2023-04-27T08:25:30.226Z,2.53
2023-04-27T08:28:01.521Z,4.93
2023-04-27T08:30:32.839Z,2.03
2023-04-27T08:33:04.415Z,2.87
2023-04-27T08:35:36.005Z,3.33
2023-04-27T08:38:07.527Z,5.60
2023-04-27T08:40:45.011Z,3.73
2023-04-27T08:43:16.906Z,4.63
2023-04-27T08:45:50.284Z,3.90
2023-04-27T08:48:22.073Z,6.07
2023-04-27T08:50:53.858Z,2.47
2023-04-27T08:53:25.302Z,3.37
2023-04-27T08:55:57.736Z,3.17
2023-04-27T08:58:39.219Z,4.40
2023-04-27T09:01:10.751Z,3.37
2023-04-27T09:03:42.399Z,6.57
2023-04-27T09:06:15.123Z,3.60
2023-04-27T09:08:50.955Z,2.30
2023-04-27T09:11:36.387Z,3.95
2023-04-27T09:14:21.581Z,4.07
2023-04-27T09:16:57.979Z,2.30
2023-04-27T09:19:30.726Z,4.67
2023-04-27T09:22:14.706Z,2.50
2023-04-27T09:24:53.319Z,4.53
2023-04-27T09:27:24.701Z,2.70
2023-04-27T09:29:56.107Z,2.70
2023-04-27T09:32:27.442Z,4.17
2023-04-27T09:34:58.737Z,2.93
2023-04-27T09:37:30.669Z,2.13
2023-04-27T09:40:04.241Z,4.63
2023-04-27T09:42:35.931Z,2.33
2023-04-27T09:45:07.864Z,3.33
2023-04-27T09:47:40.416Z,5.60
2023-04-27T09:50:13.951Z,3.87
2023-04-27T09:52:46.159Z,4.30
2023-04-27T09:55:28.035Z,3.57
2023-04-27T09:58:41.053Z,2.37
2023-04-27T10:01:30.353Z,6.17
2023-04-27T10:04:38.740Z,4.37
2023-04-27T10:07:14.534Z,4.07
2023-04-27T10:09:48.138Z,3.33
2023-04-27T10:12:27.417Z,2.70
2023-04-27T10:15:11.032Z,2.13
2023-04-27T10:17:54.823Z,4.00
2023-04-27T10:20:33.087Z,3.87
2023-04-27T10:23:04.629Z,3.63
2023-04-27T10:25:40.869Z,2.97
2023-04-27T10:28:17.786Z,3.23
2023-04-27T10:30:49.584Z,2.87
2023-04-27T10:33:22.926Z,3.07
2023-04-27T10:35:57.085Z,2.20
2023-04-27T10:38:30.831Z,4.77
2023-04-27T10:41:05.283Z,4.03
2023-04-27T10:43:36.559Z,5.17
2023-04-27T10:46:16.786Z,4.57
2023-04-27T10:48:48.103Z,2.97
2023-04-27T10:51:19.368Z,5.23
2023-04-27T10:53:53.872Z,4.50
2023-04-27T10:56:26.571Z,4.80
2023-04-27T10:59:03.501Z,3.80
2023-04-27T11:01:36.043Z,2.77
2023-04-27T11:04:07.324Z,3.80
2023-04-27T11:06:43.976Z,3.00
2023-04-27T11:09:25.693Z,3.20
2023-04-27T11:11:57.090Z,4.60
2023-04-27T11:14:29.596Z,4.50
2023-04-27T11:17:00.896Z,4.37
2023-04-27T11:19:32.300Z,3.57
2023-04-27T11:22:04.817Z,4.20
2023-04-27T11:24:36.207Z,3.53
2023-04-27T11:27:07.492Z,5.87
2023-04-27T11:29:39.525Z,4.73
2023-04-27T11:32:23.769Z,5.80
2023-04-27T11:34:56.621Z,6.13
2023-04-27T11:37:29.654Z,3.40
2023-04-27T11:40:01.431Z,3.07
2023-04-27T11:42:32.795Z,5.93
2023-04-27T11:45:06.051Z,4.57
2023-04-27T11:47:37.950Z,3.63
2023-04-27T11:50:09.665Z,4.17
2023-04-27T11:52:41.124Z,4.53
2023-04-27T11:55:16.001Z,3.90
2023-04-27T11:57:47.694Z,4.45
2023-04-27T12:00:19.608Z,2.93
2023-04-27T12:02:51.092Z,4.03
2023-04-27T12:05:22.847Z,3.23
2023-04-27T12:07:54.187Z,4.17
2023-04-27T12:10:25.491Z,3.50
2023-04-27T12:12:56.877Z,2.73
2023-04-27T12:15:28.177Z,3.70
2023-04-27T12:17:59.703Z,3.77
2023-04-27T12:20:31.036Z,4.07
2023-04-27T12:23:02.352Z,2.57
2023-04-27T12:25:33.744Z,4.23
2023-04-27T12:28:05.016Z,3.40
2023-04-27T12:30:36.496Z,4.60
2023-04-27T12:33:11.005Z,2.70
2023-04-27T12:35:42.923Z,3.13
2023-04-27T12:38:14.363Z,3.63
2023-04-27T12:40:46.032Z,4.40
2023-04-27T12:43:17.305Z,4.43
2023-04-27T12:45:48.712Z,4.77
2023-04-27T12:48:20.105Z,6.10
2023-04-27T12:50:51.520Z,2.83
2023-04-27T12:53:23.931Z,3.70
2023-04-27T12:55:55.522Z,4.50
2023-04-27T12:58:26.882Z,3.00
2023-04-27T13:00:58.397Z,2.73
2023-04-27T13:03:31.043Z,3.83
2023-04-27T13:06:02.554Z,3.80
2023-04-27T13:08:34.899Z,2.83
2023-04-27T13:11:07.618Z,2.00
2023-04-27T13:13:38.912Z,5.20
2023-04-27T13:16:11.643Z,3.57
2023-04-27T13:18:49.287Z,3.07
2023-04-27T13:21:20.963Z,2.37
2023-04-27T13:23:54.764Z,4.30
2023-04-27T13:26:26.205Z,2.60
2023-04-27T13:28:58.053Z,3.07
2023-04-27T13:31:29.361Z,3.43
2023-04-27T13:34:01.234Z,2.97
2023-04-27T13:36:32.504Z,3.97
2023-04-27T13:39:04.881Z,10.47
2023-04-27T13:41:36.286Z,3.83
2023-04-27T13:44:07.564Z,6.73
2023-04-27T13:46:38.851Z,4.00
2023-04-27T13:49:10.879Z,3.33
2023-04-27T13:51:42.185Z,2.43
2023-04-27T13:54:13.771Z,8.57
2023-04-27T13:56:45.569Z,3.90
2023-04-27T13:59:17.178Z,3.30
2023-04-27T14:01:48.694Z,4.27
2023-04-27T14:04:20.114Z,4.50
2023-04-27T14:06:51.604Z,3.90
2023-04-27T14:09:24.141Z,7.43
2023-04-27T14:11:57.184Z,5.53
2023-04-27T14:14:29.239Z,4.37
2023-04-27T14:17:00.740Z,4.27
2023-04-27T14:19:32.524Z,7.60
2023-04-27T14:22:06.203Z,6.50
2023-04-27T14:24:37.540Z,4.43
2023-04-27T14:27:09.030Z,4.23
2023-04-27T14:29:40.314Z,3.77
2023-04-27T14:32:12.725Z,6.00
2023-04-27T14:34:44.351Z,4.73
2023-04-27T14:37:15.761Z,4.80
2023-04-27T14:39:47.315Z,3.30
2023-04-27T14:42:18.584Z,5.83
2023-04-27T14:44:49.909Z,3.73
2023-04-27T14:47:21.267Z,5.70
2023-04-27T14:49:52.621Z,4.13
2023-04-27T14:52:23.911Z,4.40
2023-04-27T14:54:55.469Z,4.50
2023-04-27T14:57:26.863Z,3.13
2023-04-27T14:59:59.010Z,3.63
2023-04-27T15:02:33.150Z,4.43
2023-04-27T15:05:05.850Z,3.67
2023-04-27T15:07:37.425Z,7.10
2023-04-27T15:10:09.254Z,6.07
2023-04-27T15:12:40.686Z,4.57
2023-04-27T15:15:12.924Z,5.20
2023-04-27T15:17:44.200Z,6.20
2023-04-27T15:20:15.661Z,6.77
2023-04-27T15:22:47.092Z,4.13
2023-04-27T15:25:18.575Z,4.57
2023-04-27T15:27:49.840Z,4.00
2023-04-27T15:30:21.161Z,5.33
2023-04-27T15:32:52.573Z,4.17
2023-04-27T15:35:23.914Z,6.03
2023-04-27T15:37:55.348Z,6.63
2023-04-27T15:40:26.649Z,3.57
2023-04-27T15:42:57.913Z,6.30
2023-04-27T15:45:29.674Z,5.30
2023-04-27T15:48:01.316Z,8.33
2023-04-27T15:50:32.858Z,3.63
2023-04-27T15:53:04.141Z,4.67
2023-04-27T15:55:35.433Z,4.73
2023-04-27T15:58:06.740Z,5.17
2023-04-27T16:00:38.333Z,4.83
2023-04-27T16:03:11.336Z,4.40
2023-04-27T16:05:42.915Z,5.47
2023-04-27T16:08:14.181Z,6.07
2023-04-27T16:10:45.463Z,7.57
2023-04-27T16:13:16.821Z,3.73
2023-04-27T16:15:48.120Z,6.77
2023-04-27T16:18:19.457Z,5.93
2023-04-27T16:20:50.788Z,7.87
2023-04-27T16:23:22.763Z,4.53
2023-04-27T16:25:54.089Z,5.63
2023-04-27T16:28:25.511Z,3.97
2023-04-27T16:30:56.842Z,4.43
2023-04-27T16:33:28.247Z,5.03
2023-04-27T16:35:59.508Z,5.53
2023-04-27T16:38:30.944Z,4.17
2023-04-27T16:41:02.371Z,4.83
2023-04-27T16:43:33.868Z,7.27
2023-04-27T16:46:06.202Z,5.10
2023-04-27T16:48:37.580Z,5.70
2023-04-27T16:51:10.581Z,7.30
2023-04-27T16:53:41.971Z,6.07
2023-04-27T16:56:14.060Z,5.10
2023-04-27T16:58:45.318Z,6.80
2023-04-27T17:01:16.595Z,5.53
2023-04-27T17:03:48.110Z,5.10
2023-04-27T17:06:19.507Z,6.00
2023-04-27T17:08:51.708Z,8.67
2023-04-27T17:11:23.595Z,5.10
2023-04-27T17:13:55.016Z,8.00
2023-04-27T17:16:26.994Z,9.03
2023-04-27T17:18:58.520Z,4.97
2023-04-27T17:21:29.798Z,8.63
2023-04-27T17:24:01.149Z,7.77
2023-04-27T17:26:32.706Z,7.27
2023-04-27T17:29:03.988Z,7.03
2023-04-27T17:31:35.292Z,8.03
2023-04-27T17:34:06.743Z,10.63
2023-04-27T17:36:38.097Z,8.37
2023-04-27T17:39:09.369Z,6.77
2023-04-27T17:41:40.895Z,7.23
2023-04-27T17:44:12.694Z,5.90
2023-04-27T17:46:48.637Z,10.67
2023-04-27T17:49:20.334Z,7.35
2023-04-27T17:51:51.674Z,7.47
2023-04-27T17:54:23.021Z,8.13
2023-04-27T17:56:54.389Z,9.87
2023-04-27T17:59:25.922Z,9.07
2023-04-27T18:01:57.561Z,10.07
2023-04-27T18:04:29.076Z,11.20
2023-04-27T18:07:00.609Z,8.93
2023-04-27T18:09:32.962Z,9.07
2023-04-27T18:12:10.590Z,9.83
2023-04-27T18:14:41.872Z,7.37
2023-04-27T18:17:13.157Z,9.53
2023-04-27T18:19:44.467Z,9.80
2023-04-27T18:22:16.000Z,9.57
2023-04-27T18:24:47.735Z,8.63
2023-04-27T18:27:19.048Z,9.03
2023-04-27T18:29:51.887Z,6.40
2023-04-27T18:32:23.210Z,10.47
2023-04-27T18:34:56.332Z,8.77
2023-04-27T18:37:27.742Z,9.87
2023-04-27T18:39:59.008Z,9.50
2023-04-27T18:42:30.354Z,9.60
2023-04-27T18:45:01.819Z,12.53
2023-04-27T18:47:33.134Z,8.30
2023-04-27T18:50:05.149Z,8.43
2023-04-27T18:52:36.646Z,8.07
2023-04-27T18:55:08.916Z,7.40
2023-04-27T18:57:40.171Z,8.83
2023-04-27T19:00:12.925Z,10.27
2023-04-27T19:02:44.314Z,9.37
2023-04-27T19:05:15.974Z,11.37
2023-04-27T19:07:47.305Z,9.23
2023-04-27T19:10:18.726Z,10.83
2023-04-27T19:12:50.031Z,11.63
2023-04-27T19:15:23.667Z,9.30
2023-04-27T19:18:03.034Z,10.23
2023-04-27T19:20:41.934Z,10.57
2023-04-27T19:23:13.574Z,13.47
2023-04-27T19:25:48.075Z,10.47
2023-04-27T19:28:19.849Z,12.20
2023-04-27T19:30:51.323Z,11.53
2023-04-27T19:33:22.671Z,8.93
2023-04-27T19:35:54.240Z,8.37
2023-04-27T19:38:25.634Z,12.03
2023-04-27T19:40:57.043Z,8.73
2023-04-27T19:43:28.990Z,10.30
2023-04-27T19:46:03.622Z,9.70
2023-04-27T19:48:34.967Z,10.10
2023-04-27T19:51:10.303Z,8.90
2023-04-27T19:53:41.633Z,7.05
2023-04-27T19:56:12.894Z,10.00
2023-04-27T19:58:44.169Z,8.03
2023-04-27T20:01:15.529Z,9.03
2023-04-27T20:03:46.957Z,11.10
2023-04-27T20:06:20.060Z,9.77
2023-04-27T20:08:51.423Z,10.53
2023-04-27T20:11:22.735Z,10.40
2023-04-27T20:13:54.122Z,7.33
2023-04-27T20:16:25.715Z,10.47
2023-04-27T20:18:57.102Z,9.77
2023-04-27T20:21:29.231Z,10.50
2023-04-27T20:24:00.524Z,11.47
2023-04-27T20:26:31.925Z,9.63
2023-04-27T20:29:03.197Z,9.00
2023-04-27T20:31:34.625Z,9.07
2023-04-27T20:34:06.140Z,7.90
2023-04-27T20:36:37.457Z,9.37
2023-04-27T20:39:10.284Z,9.10
2023-04-27T20:41:41.933Z,10.10
2023-04-27T20:44:13.660Z,8.67
2023-04-27T20:46:45.122Z,10.90
2023-04-27T20:49:24.700Z,9.37
2023-04-27T20:52:03.195Z,12.48
2023-04-27T20:54:34.566Z,8.73
2023-04-27T20:57:10.797Z,13.23
2023-04-27T21:02:13.270Z,9.20
2023-04-27T21:04:44.743Z,10.30
2023-04-27T21:07:16.109Z,8.97
2023-04-27T21:09:47.426Z,10.33
2023-04-27T21:12:18.793Z,9.33
2023-04-27T21:14:50.278Z,12.50
2023-04-27T21:17:21.556Z,11.07
2023-04-27T21:19:53.047Z,10.60
2023-04-27T21:22:24.352Z,10.03
2023-04-27T21:24:55.649Z,12.60
2023-04-27T21:27:28.503Z,8.93
2023-04-27T21:30:00.051Z,14.30
2023-04-27T21:32:31.353Z,9.33
2023-04-27T21:35:02.814Z,7.63
2023-04-27T21:37:34.755Z,11.63
2023-04-27T21:40:06.880Z,10.30
2023-04-27T21:42:38.133Z,7.90
2023-04-27T21:45:09.965Z,15.73
2023-04-27T21:47:41.334Z,10.17
2023-04-27T21:50:13.125Z,10.40
2023-04-27T21:52:44.496Z,12.87
2023-04-27T21:55:15.850Z,11.13
2023-04-27T21:57:47.100Z,9.47
2023-04-27T22:00:18.922Z,11.50
2023-04-27T22:02:51.113Z,10.40
2023-04-27T22:05:22.637Z,11.83
2023-04-27T22:07:53.893Z,10.77
2023-04-27T22:10:25.348Z,14.03
2023-04-27T22:12:58.261Z,10.67
2023-04-27T22:15:29.703Z,12.37
2023-04-27T22:18:00.999Z,11.67
2023-04-27T22:20:33.273Z,14.63
2023-04-27T22:23:04.544Z,11.60
2023-04-27T22:25:36.403Z,13.03
2023-04-27T22:28:08.223Z,16.53
2023-04-27T22:30:42.506Z,13.57
2023-04-27T22:33:13.948Z,11.30
2023-04-27T22:35:45.404Z,14.23
2023-04-27T22:38:16.782Z,12.63
2023-04-27T22:40:48.050Z,14.90
2023-04-27T22:43:19.314Z,12.47
2023-04-27T22:45:50.939Z,10.93
2023-04-27T22:48:22.198Z,16.53
2023-04-27T22:50:53.600Z,12.33
2023-04-27T22:53:24.878Z,15.37
2023-04-27T22:55:56.303Z,13.53
2023-04-27T22:58:27.599Z,10.63
2023-04-27T23:00:59.007Z,11.63
2023-04-27T23:03:30.448Z,14.83
2023-04-27T23:06:01.995Z,11.93
2023-04-27T23:08:33.322Z,16.97
2023-04-27T23:11:04.587Z,12.60
2023-04-27T23:13:37.936Z,17.33
2023-04-27T23:16:09.933Z,18.87
2023-04-27T23:18:41.773Z,10.07
2023-04-27T23:21:13.108Z,13.27
2023-04-27T23:23:44.360Z,14.43
2023-04-27T23:26:16.280Z,15.70
2023-04-27T23:28:48.102Z,10.23
2023-04-27T23:31:19.363Z,10.23
2023-04-27T23:33:50.685Z,13.20
2023-04-27T23:36:22.000Z,10.57
2023-04-27T23:38:53.334Z,14.90
2023-04-27T23:41:24.593Z,13.43
2023-04-27T23:43:56.006Z,16.87
2023-04-27T23:46:27.289Z,9.33
2023-04-27T23:48:58.599Z,14.40
2023-04-27T23:51:29.884Z,11.93
2023-04-27T23:54:01.140Z,12.63
2023-04-27T23:56:32.406Z,17.20
2023-04-27T23:59:03.680Z,11.47
